sensor_id;sensor_type;location;lat;lon;timestamp;P1;durP1;ratioP1;P2;durP2;ratioP2
52138;SDS011;38131;53.256;6.460;2022-07-10T00:00:38;8.90;;;1.10;;
52138;SDS011;38131;53.256;6.460;2022-07-10T00:03:04;7.57;;;0.90;;
52138;SDS011;38131;53.256;6.460;2022-07-10T00:05:30;11.13;;;1.23;;
52138;SDS011;38131;53.256;6.460;2022-07-10T00:07:57;7.90;;;1.00;;
52138;SDS011;38131;53.256;6.460;2022-07-10T00:10:23;4.82;;;1.02;;
52138;SDS011;38131;53.256;6.460;2022-07-10T00:12:50;10.27;;;0.98;;
52138;SDS011;38131;53.256;6.460;2022-07-10T00:15:16;5.45;;;0.98;;
52138;SDS011;38131;53.256;6.460;2022-07-10T00:17:43;3.70;;;1.73;;
52138;SDS011;38131;53.256;6.460;2022-07-10T00:20:10;11.25;;;1.13;;
52138;SDS011;38131;53.256;6.460;2022-07-10T00:22:36;12.32;;;1.40;;
52138;SDS011;38131;53.256;6.460;2022-07-10T00:25:07;11.00;;;1.25;;
52138;SDS011;38131;53.256;6.460;2022-07-10T00:27:34;6.53;;;0.98;;
52138;SDS011;38131;53.256;6.460;2022-07-10T00:30:00;10.98;;;1.33;;
52138;SDS011;38131;53.256;6.460;2022-07-10T00:32:26;9.38;;;1.95;;
52138;SDS011;38131;53.256;6.460;2022-07-10T00:34:52;8.52;;;1.08;;
52138;SDS011;38131;53.256;6.460;2022-07-10T00:37:18;5.88;;;1.08;;
52138;SDS011;38131;53.256;6.460;2022-07-10T00:39:46;8.68;;;0.90;;
52138;SDS011;38131;53.256;6.460;2022-07-10T00:42:13;7.05;;;1.00;;
52138;SDS011;38131;53.256;6.460;2022-07-10T00:44:40;11.18;;;1.60;;
52138;SDS011;38131;53.256;6.460;2022-07-10T00:47:07;12.90;;;1.92;;
52138;SDS011;38131;53.256;6.460;2022-07-10T00:49:33;15.30;;;1.70;;
52138;SDS011;38131;53.256;6.460;2022-07-10T00:52:01;6.88;;;1.20;;
52138;SDS011;38131;53.256;6.460;2022-07-10T00:54:29;10.95;;;1.55;;
52138;SDS011;38131;53.256;6.460;2022-07-10T00:56:56;5.30;;;0.90;;
52138;SDS011;38131;53.256;6.460;2022-07-10T00:59:22;11.95;;;1.48;;
52138;SDS011;38131;53.256;6.460;2022-07-10T01:01:50;9.73;;;1.40;;
52138;SDS011;38131;53.256;6.460;2022-07-10T01:04:16;6.80;;;0.82;;
52138;SDS011;38131;53.256;6.460;2022-07-10T01:06:42;7.22;;;1.00;;
52138;SDS011;38131;53.256;6.460;2022-07-10T01:09:08;9.90;;;0.90;;
52138;SDS011;38131;53.256;6.460;2022-07-10T01:11:34;11.48;;;1.10;;
52138;SDS011;38131;53.256;6.460;2022-07-10T01:14:01;8.80;;;1.30;;
52138;SDS011;38131;53.256;6.460;2022-07-10T01:16:27;5.15;;;1.00;;
52138;SDS011;38131;53.256;6.460;2022-07-10T01:18:54;5.82;;;1.00;;
52138;SDS011;38131;53.256;6.460;2022-07-10T01:21:27;5.55;;;0.90;;
52138;SDS011;38131;53.256;6.460;2022-07-10T01:23:58;8.90;;;1.20;;
52138;SDS011;38131;53.256;6.460;2022-07-10T01:26:24;5.53;;;1.63;;
52138;SDS011;38131;53.256;6.460;2022-07-10T01:28:51;7.45;;;0.45;;
52138;SDS011;38131;53.256;6.460;2022-07-10T01:31:18;6.25;;;1.00;;
52138;SDS011;38131;53.256;6.460;2022-07-10T01:33:45;7.40;;;1.52;;
52138;SDS011;38131;53.256;6.460;2022-07-10T01:36:12;7.60;;;0.80;;
52138;SDS011;38131;53.256;6.460;2022-07-10T01:38:41;8.93;;;1.25;;
52138;SDS011;38131;53.256;6.460;2022-07-10T01:41:07;6.32;;;1.60;;
52138;SDS011;38131;53.256;6.460;2022-07-10T01:43:35;10.55;;;1.30;;
52138;SDS011;38131;53.256;6.460;2022-07-10T01:46:02;6.53;;;1.00;;
52138;SDS011;38131;53.256;6.460;2022-07-10T01:48:28;6.35;;;0.93;;
52138;SDS011;38131;53.256;6.460;2022-07-10T01:50:54;5.28;;;1.00;;
52138;SDS011;38131;53.256;6.460;2022-07-10T01:53:20;6.00;;;0.70;;
52138;SDS011;38131;53.256;6.460;2022-07-10T01:55:46;7.55;;;1.10;;
52138;SDS011;38131;53.256;6.460;2022-07-10T01:58:12;8.13;;;1.13;;
52138;SDS011;38131;53.256;6.460;2022-07-10T02:00:38;10.13;;;1.23;;
52138;SDS011;38131;53.256;6.460;2022-07-10T02:03:04;7.57;;;1.30;;
52138;SDS011;38131;53.256;6.460;2022-07-10T02:05:48;9.40;;;1.08;;
52138;SDS011;38131;53.256;6.460;2022-07-10T02:08:20;12.68;;;1.17;;
52138;SDS011;38131;53.256;6.460;2022-07-10T02:10:46;8.65;;;0.90;;
52138;SDS011;38131;53.256;6.460;2022-07-10T02:13:12;7.55;;;0.93;;
52138;SDS011;38131;53.256;6.460;2022-07-10T02:15:40;13.27;;;1.65;;
52138;SDS011;38131;53.256;6.460;2022-07-10T02:18:06;6.93;;;0.82;;
52138;SDS011;38131;53.256;6.460;2022-07-10T02:20:33;7.90;;;1.13;;
52138;SDS011;38131;53.256;6.460;2022-07-10T02:23:00;8.35;;;0.80;;
52138;SDS011;38131;53.256;6.460;2022-07-10T02:25:26;5.95;;;1.25;;
52138;SDS011;38131;53.256;6.460;2022-07-10T02:27:52;8.45;;;1.08;;
52138;SDS011;38131;53.256;6.460;2022-07-10T02:30:17;5.10;;;0.85;;
52138;SDS011;38131;53.256;6.460;2022-07-10T02:32:43;6.90;;;1.52;;
52138;SDS011;38131;53.256;6.460;2022-07-10T02:35:09;6.90;;;1.25;;
52138;SDS011;38131;53.256;6.460;2022-07-10T02:37:34;5.57;;;1.15;;
52138;SDS011;38131;53.256;6.460;2022-07-10T02:40:00;7.90;;;1.17;;
52138;SDS011;38131;53.256;6.460;2022-07-10T02:42:26;9.88;;;1.52;;
52138;SDS011;38131;53.256;6.460;2022-07-10T02:44:51;9.40;;;1.30;;
52138;SDS011;38131;53.256;6.460;2022-07-10T02:47:17;4.53;;;1.13;;
52138;SDS011;38131;53.256;6.460;2022-07-10T02:49:43;8.02;;;1.00;;
52138;SDS011;38131;53.256;6.460;2022-07-10T02:52:09;8.05;;;0.98;;
52138;SDS011;38131;53.256;6.460;2022-07-10T02:54:35;8.27;;;1.13;;
52138;SDS011;38131;53.256;6.460;2022-07-10T02:57:00;15.32;;;0.93;;
52138;SDS011;38131;53.256;6.460;2022-07-10T02:59:26;10.57;;;1.00;;
52138;SDS011;38131;53.256;6.460;2022-07-10T03:01:52;8.60;;;1.10;;
52138;SDS011;38131;53.256;6.460;2022-07-10T03:04:17;11.80;;;1.42;;
52138;SDS011;38131;53.256;6.460;2022-07-10T03:06:43;4.88;;;0.90;;
52138;SDS011;38131;53.256;6.460;2022-07-10T03:09:09;5.20;;;0.73;;
52138;SDS011;38131;53.256;6.460;2022-07-10T03:11:34;6.90;;;1.00;;
52138;SDS011;38131;53.256;6.460;2022-07-10T03:14:00;14.13;;;1.85;;
52138;SDS011;38131;53.256;6.460;2022-07-10T03:16:26;12.40;;;1.60;;
52138;SDS011;38131;53.256;6.460;2022-07-10T03:19:03;9.00;;;0.90;;
52138;SDS011;38131;53.256;6.460;2022-07-10T03:21:29;10.27;;;1.55;;
52138;SDS011;38131;53.256;6.460;2022-07-10T03:23:56;9.68;;;1.63;;
52138;SDS011;38131;53.256;6.460;2022-07-10T03:26:22;8.88;;;1.15;;
52138;SDS011;38131;53.256;6.460;2022-07-10T03:28:47;12.07;;;1.10;;
52138;SDS011;38131;53.256;6.460;2022-07-10T03:31:13;8.65;;;0.95;;
52138;SDS011;38131;53.256;6.460;2022-07-10T03:33:39;7.97;;;1.25;;
52138;SDS011;38131;53.256;6.460;2022-07-10T03:36:04;11.50;;;1.15;;
52138;SDS011;38131;53.256;6.460;2022-07-10T03:38:30;12.60;;;1.30;;
52138;SDS011;38131;53.256;6.460;2022-07-10T03:40:56;12.02;;;1.10;;
52138;SDS011;38131;53.256;6.460;2022-07-10T03:43:22;8.88;;;1.00;;
52138;SDS011;38131;53.256;6.460;2022-07-10T03:45:48;9.98;;;1.58;;
52138;SDS011;38131;53.256;6.460;2022-07-10T03:48:13;7.57;;;1.23;;
52138;SDS011;38131;53.256;6.460;2022-07-10T03:50:51;8.27;;;1.83;;
52138;SDS011;38131;53.256;6.460;2022-07-10T03:53:20;9.52;;;1.63;;
52138;SDS011;38131;53.256;6.460;2022-07-10T03:55:50;8.53;;;1.33;;
52138;SDS011;38131;53.256;6.460;2022-07-10T03:58:29;10.50;;;1.33;;
52138;SDS011;38131;53.256;6.460;2022-07-10T04:00:55;8.25;;;1.38;;
52138;SDS011;38131;53.256;6.460;2022-07-10T04:03:20;9.20;;;1.58;;
52138;SDS011;38131;53.256;6.460;2022-07-10T04:05:46;12.32;;;1.55;;
52138;SDS011;38131;53.256;6.460;2022-07-10T04:08:12;15.20;;;1.90;;
52138;SDS011;38131;53.256;6.460;2022-07-10T04:10:38;11.57;;;1.83;;
52138;SDS011;38131;53.256;6.460;2022-07-10T04:13:04;7.68;;;1.42;;
52138;SDS011;38131;53.256;6.460;2022-07-10T04:15:39;10.25;;;1.58;;
52138;SDS011;38131;53.256;6.460;2022-07-10T04:18:04;15.57;;;1.63;;
52138;SDS011;38131;53.256;6.460;2022-07-10T04:20:30;10.63;;;1.52;;
52138;SDS011;38131;53.256;6.460;2022-07-10T04:22:56;11.95;;;1.48;;
52138;SDS011;38131;53.256;6.460;2022-07-10T04:25:22;9.55;;;1.50;;
52138;SDS011;38131;53.256;6.460;2022-07-10T04:27:47;12.55;;;1.92;;
52138;SDS011;38131;53.256;6.460;2022-07-10T04:30:13;11.23;;;1.55;;
52138;SDS011;38131;53.256;6.460;2022-07-10T04:32:39;13.00;;;1.40;;
52138;SDS011;38131;53.256;6.460;2022-07-10T04:35:04;10.20;;;1.30;;
52138;SDS011;38131;53.256;6.460;2022-07-10T04:37:30;12.05;;;1.90;;
52138;SDS011;38131;53.256;6.460;2022-07-10T04:39:56;15.00;;;1.50;;
52138;SDS011;38131;53.256;6.460;2022-07-10T04:42:22;9.35;;;1.30;;
52138;SDS011;38131;53.256;6.460;2022-07-10T04:44:50;9.00;;;1.05;;
52138;SDS011;38131;53.256;6.460;2022-07-10T04:47:16;8.35;;;1.40;;
52138;SDS011;38131;53.256;6.460;2022-07-10T04:49:42;8.63;;;1.20;;
52138;SDS011;38131;53.256;6.460;2022-07-10T04:52:08;7.90;;;1.40;;
52138;SDS011;38131;53.256;6.460;2022-07-10T04:54:33;13.18;;;1.30;;
52138;SDS011;38131;53.256;6.460;2022-07-10T04:56:59;6.53;;;1.25;;
52138;SDS011;38131;53.256;6.460;2022-07-10T04:59:25;11.07;;;1.20;;
52138;SDS011;38131;53.256;6.460;2022-07-10T05:01:51;6.53;;;1.00;;
52138;SDS011;38131;53.256;6.460;2022-07-10T05:04:17;8.25;;;1.33;;
52138;SDS011;38131;53.256;6.460;2022-07-10T05:06:42;6.13;;;1.15;;
52138;SDS011;38131;53.256;6.460;2022-07-10T05:09:08;9.38;;;1.10;;
52138;SDS011;38131;53.256;6.460;2022-07-10T05:11:37;8.02;;;1.20;;
52138;SDS011;38131;53.256;6.460;2022-07-10T05:14:02;5.18;;;1.20;;
52138;SDS011;38131;53.256;6.460;2022-07-10T05:16:28;14.95;;;1.50;;
52138;SDS011;38131;53.256;6.460;2022-07-10T05:18:54;9.30;;;1.20;;
52138;SDS011;38131;53.256;6.460;2022-07-10T05:23:53;10.90;;;1.90;;
52138;SDS011;38131;53.256;6.460;2022-07-10T05:26:19;13.10;;;1.50;;
52138;SDS011;38131;53.256;6.460;2022-07-10T05:28:44;11.82;;;1.50;;
52138;SDS011;38131;53.256;6.460;2022-07-10T05:31:10;11.70;;;1.35;;
52138;SDS011;38131;53.256;6.460;2022-07-10T05:33:36;12.85;;;1.52;;
52138;SDS011;38131;53.256;6.460;2022-07-10T05:36:03;8.85;;;1.45;;
52138;SDS011;38131;53.256;6.460;2022-07-10T05:38:29;11.15;;;1.30;;
52138;SDS011;38131;53.256;6.460;2022-07-10T05:44:36;7.20;;;1.15;;
52138;SDS011;38131;53.256;6.460;2022-07-10T05:47:01;10.90;;;1.58;;
52138;SDS011;38131;53.256;6.460;2022-07-10T05:52:12;7.00;;;1.27;;
52138;SDS011;38131;53.256;6.460;2022-07-10T05:54:37;10.75;;;1.65;;
52138;SDS011;38131;53.256;6.460;2022-07-10T05:57:03;4.97;;;1.50;;
52138;SDS011;38131;53.256;6.460;2022-07-10T05:59:46;5.95;;;1.02;;
52138;SDS011;38131;53.256;6.460;2022-07-10T06:02:11;5.30;;;1.33;;
52138;SDS011;38131;53.256;6.460;2022-07-10T06:04:37;9.68;;;1.60;;
52138;SDS011;38131;53.256;6.460;2022-07-10T06:10:19;5.18;;;1.15;;
52138;SDS011;38131;53.256;6.460;2022-07-10T06:12:51;9.40;;;1.33;;
52138;SDS011;38131;53.256;6.460;2022-07-10T06:15:17;8.25;;;1.17;;
52138;SDS011;38131;53.256;6.460;2022-07-10T06:17:43;8.40;;;1.10;;
52138;SDS011;38131;53.256;6.460;2022-07-10T06:20:09;15.00;;;1.77;;
52138;SDS011;38131;53.256;6.460;2022-07-10T06:22:35;12.45;;;1.30;;
52138;SDS011;38131;53.256;6.460;2022-07-10T06:25:04;8.15;;;1.63;;
52138;SDS011;38131;53.256;6.460;2022-07-10T06:27:32;5.80;;;1.02;;
52138;SDS011;38131;53.256;6.460;2022-07-10T06:29:58;4.57;;;1.08;;
52138;SDS011;38131;53.256;6.460;2022-07-10T06:32:24;7.22;;;1.40;;
52138;SDS011;38131;53.256;6.460;2022-07-10T06:34:51;6.50;;;1.00;;
52138;SDS011;38131;53.256;6.460;2022-07-10T06:37:17;4.50;;;0.70;;
52138;SDS011;38131;53.256;6.460;2022-07-10T06:39:43;6.25;;;1.02;;
52138;SDS011;38131;53.256;6.460;2022-07-10T06:42:11;6.80;;;0.93;;
52138;SDS011;38131;53.256;6.460;2022-07-10T06:44:37;4.53;;;0.95;;
52138;SDS011;38131;53.256;6.460;2022-07-10T06:47:05;6.43;;;1.00;;
52138;SDS011;38131;53.256;6.460;2022-07-10T06:49:52;6.70;;;0.68;;
52138;SDS011;38131;53.256;6.460;2022-07-10T06:52:19;3.53;;;0.77;;
52138;SDS011;38131;53.256;6.460;2022-07-10T06:54:45;6.88;;;0.93;;
52138;SDS011;38131;53.256;6.460;2022-07-10T06:57:11;7.95;;;1.30;;
52138;SDS011;38131;53.256;6.460;2022-07-10T06:59:38;5.72;;;1.00;;
52138;SDS011;38131;53.256;6.460;2022-07-10T07:05:45;3.97;;;0.80;;
52138;SDS011;38131;53.256;6.460;2022-07-10T07:08:10;6.13;;;0.90;;
52138;SDS011;38131;53.256;6.460;2022-07-10T07:10:38;4.70;;;0.93;;
52138;SDS011;38131;53.256;6.460;2022-07-10T07:13:04;3.38;;;0.60;;
52138;SDS011;38131;53.256;6.460;2022-07-10T07:15:30;7.70;;;0.75;;
52138;SDS011;38131;53.256;6.460;2022-07-10T07:17:56;4.55;;;1.00;;
52138;SDS011;38131;53.256;6.460;2022-07-10T07:20:29;6.28;;;0.68;;
52138;SDS011;38131;53.256;6.460;2022-07-10T07:26:05;5.35;;;1.05;;
52138;SDS011;38131;53.256;6.460;2022-07-10T07:28:31;8.52;;;1.25;;
52138;SDS011;38131;53.256;6.460;2022-07-10T07:30:56;5.20;;;1.00;;
52138;SDS011;38131;53.256;6.460;2022-07-10T07:33:26;10.32;;;1.50;;
52138;SDS011;38131;53.256;6.460;2022-07-10T07:35:52;5.97;;;0.73;;
52138;SDS011;38131;53.256;6.460;2022-07-10T07:38:18;6.47;;;0.70;;
52138;SDS011;38131;53.256;6.460;2022-07-10T07:40:44;7.10;;;0.93;;
52138;SDS011;38131;53.256;6.460;2022-07-10T07:43:09;10.05;;;1.17;;
52138;SDS011;38131;53.256;6.460;2022-07-10T07:45:36;6.88;;;0.65;;
52138;SDS011;38131;53.256;6.460;2022-07-10T07:48:02;6.53;;;0.77;;
52138;SDS011;38131;53.256;6.460;2022-07-10T07:50:30;2.92;;;0.65;;
52138;SDS011;38131;53.256;6.460;2022-07-10T07:52:57;11.68;;;1.30;;
52138;SDS011;38131;53.256;6.460;2022-07-10T07:55:24;5.57;;;0.85;;
52138;SDS011;38131;53.256;6.460;2022-07-10T07:57:51;4.40;;;0.93;;
52138;SDS011;38131;53.256;6.460;2022-07-10T08:00:18;7.57;;;1.38;;
52138;SDS011;38131;53.256;6.460;2022-07-10T08:02:47;4.43;;;0.93;;
52138;SDS011;38131;53.256;6.460;2022-07-10T08:05:17;6.00;;;0.68;;
52138;SDS011;38131;53.256;6.460;2022-07-10T08:07:47;4.15;;;0.60;;
52138;SDS011;38131;53.256;6.460;2022-07-10T08:10:18;2.38;;;0.45;;
52138;SDS011;38131;53.256;6.460;2022-07-10T08:12:46;3.97;;;0.80;;
52138;SDS011;38131;53.256;6.460;2022-07-10T08:15:13;2.83;;;0.60;;
52138;SDS011;38131;53.256;6.460;2022-07-10T08:17:41;4.72;;;0.50;;
52138;SDS011;38131;53.256;6.460;2022-07-10T08:20:10;2.70;;;0.20;;
52138;SDS011;38131;53.256;6.460;2022-07-10T08:22:37;2.70;;;0.35;;
52138;SDS011;38131;53.256;6.460;2022-07-10T08:25:22;1.63;;;0.45;;
52138;SDS011;38131;53.256;6.460;2022-07-10T08:27:48;2.88;;;0.38;;
52138;SDS011;38131;53.256;6.460;2022-07-10T08:30:16;2.90;;;0.47;;
52138;SDS011;38131;53.256;6.460;2022-07-10T08:35:23;2.80;;;0.40;;
52138;SDS011;38131;53.256;6.460;2022-07-10T08:37:48;2.85;;;0.40;;
52138;SDS011;38131;53.256;6.460;2022-07-10T08:44:00;3.85;;;0.65;;
52138;SDS011;38131;53.256;6.460;2022-07-10T08:46:25;2.55;;;0.52;;
52138;SDS011;38131;53.256;6.460;2022-07-10T08:51:24;4.80;;;1.00;;
52138;SDS011;38131;53.256;6.460;2022-07-10T08:54:06;2.88;;;0.55;;
52138;SDS011;38131;53.256;6.460;2022-07-10T09:00:14;2.78;;;0.40;;
52138;SDS011;38131;53.256;6.460;2022-07-10T09:02:41;3.65;;;0.40;;
52138;SDS011;38131;53.256;6.460;2022-07-10T09:05:08;2.72;;;0.68;;
52138;SDS011;38131;53.256;6.460;2022-07-10T09:07:34;5.35;;;0.40;;
52138;SDS011;38131;53.256;6.460;2022-07-10T09:10:05;3.72;;;0.40;;
52138;SDS011;38131;53.256;6.460;2022-07-10T09:12:48;3.55;;;0.30;;
52138;SDS011;38131;53.256;6.460;2022-07-10T09:15:30;2.35;;;0.40;;
52138;SDS011;38131;53.256;6.460;2022-07-10T09:18:03;1.88;;;0.60;;
52138;SDS011;38131;53.256;6.460;2022-07-10T09:20:34;3.50;;;0.50;;
52138;SDS011;38131;53.256;6.460;2022-07-10T09:25:40;2.47;;;0.63;;
52138;SDS011;38131;53.256;6.460;2022-07-10T09:28:06;4.28;;;0.70;;
52138;SDS011;38131;53.256;6.460;2022-07-10T09:30:36;4.55;;;0.98;;
52138;SDS011;38131;53.256;6.460;2022-07-10T09:33:16;1.23;;;0.73;;
52138;SDS011;38131;53.256;6.460;2022-07-10T09:39:14;3.20;;;0.63;;
52138;SDS011;38131;53.256;6.460;2022-07-10T09:41:39;2.72;;;0.73;;
52138;SDS011;38131;53.256;6.460;2022-07-10T09:44:06;4.25;;;1.13;;
52138;SDS011;38131;53.256;6.460;2022-07-10T09:46:37;2.90;;;0.90;;
52138;SDS011;38131;53.256;6.460;2022-07-10T09:49:14;4.38;;;1.10;;
52138;SDS011;38131;53.256;6.460;2022-07-10T09:51:44;3.90;;;0.77;;
52138;SDS011;38131;53.256;6.460;2022-07-10T09:54:11;4.82;;;1.13;;
52138;SDS011;38131;53.256;6.460;2022-07-10T09:59:33;5.85;;;0.80;;
52138;SDS011;38131;53.256;6.460;2022-07-10T10:01:58;7.80;;;0.98;;
52138;SDS011;38131;53.256;6.460;2022-07-10T10:04:33;6.68;;;1.70;;
52138;SDS011;38131;53.256;6.460;2022-07-10T10:07:01;7.47;;;1.45;;
52138;SDS011;38131;53.256;6.460;2022-07-10T10:12:24;6.22;;;1.75;;
52138;SDS011;38131;53.256;6.460;2022-07-10T10:14:58;6.80;;;1.55;;
52138;SDS011;38131;53.256;6.460;2022-07-10T10:17:26;3.90;;;1.40;;
52138;SDS011;38131;53.256;6.460;2022-07-10T10:19:53;10.82;;;1.70;;
52138;SDS011;38131;53.256;6.460;2022-07-10T10:22:42;6.80;;;1.45;;
52138;SDS011;38131;53.256;6.460;2022-07-10T10:27:39;8.43;;;1.60;;
52138;SDS011;38131;53.256;6.460;2022-07-10T10:30:18;6.93;;;1.55;;
52138;SDS011;38131;53.256;6.460;2022-07-10T10:32:44;5.80;;;1.30;;
52138;SDS011;38131;53.256;6.460;2022-07-10T10:35:13;11.05;;;2.10;;
52138;SDS011;38131;53.256;6.460;2022-07-10T10:38:08;10.23;;;1.52;;
52138;SDS011;38131;53.256;6.460;2022-07-10T10:40:35;11.85;;;2.20;;
52138;SDS011;38131;53.256;6.460;2022-07-10T10:46:25;5.22;;;1.15;;
52138;SDS011;38131;53.256;6.460;2022-07-10T10:52:00;8.02;;;1.58;;
52138;SDS011;38131;53.256;6.460;2022-07-10T10:57:33;5.72;;;0.75;;
52138;SDS011;38131;53.256;6.460;2022-07-10T11:03:28;6.03;;;1.15;;
52138;SDS011;38131;53.256;6.460;2022-07-10T11:05:55;6.63;;;1.38;;
52138;SDS011;38131;53.256;6.460;2022-07-10T11:08:42;6.47;;;1.50;;
52138;SDS011;38131;53.256;6.460;2022-07-10T11:14:03;5.65;;;1.15;;
52138;SDS011;38131;53.256;6.460;2022-07-10T11:16:30;6.00;;;0.95;;
52138;SDS011;38131;53.256;6.460;2022-07-10T11:18:57;5.25;;;0.90;;
52138;SDS011;38131;53.256;6.460;2022-07-10T11:21:26;3.97;;;0.98;;
52138;SDS011;38131;53.256;6.460;2022-07-10T11:26:40;7.53;;;1.00;;
52138;SDS011;38131;53.256;6.460;2022-07-10T11:29:44;4.75;;;1.00;;
52138;SDS011;38131;53.256;6.460;2022-07-10T11:32:15;5.60;;;0.98;;
52138;SDS011;38131;53.256;6.460;2022-07-10T11:34:42;2.60;;;0.80;;
52138;SDS011;38131;53.256;6.460;2022-07-10T11:37:15;8.88;;;1.15;;
52138;SDS011;38131;53.256;6.460;2022-07-10T11:39:41;4.95;;;1.15;;
52138;SDS011;38131;53.256;6.460;2022-07-10T11:42:08;7.65;;;0.95;;
52138;SDS011;38131;53.256;6.460;2022-07-10T11:44:34;4.38;;;1.00;;
52138;SDS011;38131;53.256;6.460;2022-07-10T11:47:00;3.60;;;1.15;;
52138;SDS011;38131;53.256;6.460;2022-07-10T11:49:31;4.55;;;1.13;;
52138;SDS011;38131;53.256;6.460;2022-07-10T11:52:02;5.25;;;1.00;;
52138;SDS011;38131;53.256;6.460;2022-07-10T11:54:29;6.28;;;1.33;;
52138;SDS011;38131;53.256;6.460;2022-07-10T11:57:05;2.55;;;0.85;;
52138;SDS011;38131;53.256;6.460;2022-07-10T11:59:33;2.65;;;1.17;;
52138;SDS011;38131;53.256;6.460;2022-07-10T12:01:59;5.40;;;1.30;;
52138;SDS011;38131;53.256;6.460;2022-07-10T12:04:25;8.18;;;1.25;;
52138;SDS011;38131;53.256;6.460;2022-07-10T12:06:55;5.18;;;0.90;;
52138;SDS011;38131;53.256;6.460;2022-07-10T12:09:21;2.78;;;0.82;;
52138;SDS011;38131;53.256;6.460;2022-07-10T12:14:50;4.72;;;2.25;;
52138;SDS011;38131;53.256;6.460;2022-07-10T12:17:16;8.30;;;2.53;;
52138;SDS011;38131;53.256;6.460;2022-07-10T12:19:42;4.00;;;1.33;;
52138;SDS011;38131;53.256;6.460;2022-07-10T12:22:09;2.83;;;0.80;;
52138;SDS011;38131;53.256;6.460;2022-07-10T12:24:35;7.70;;;1.10;;
52138;SDS011;38131;53.256;6.460;2022-07-10T12:27:01;3.47;;;0.95;;
52138;SDS011;38131;53.256;6.460;2022-07-10T12:29:27;3.65;;;0.93;;
52138;SDS011;38131;53.256;6.460;2022-07-10T12:31:55;5.50;;;1.17;;
52138;SDS011;38131;53.256;6.460;2022-07-10T12:34:41;1.63;;;0.77;;
52138;SDS011;38131;53.256;6.460;2022-07-10T12:37:09;3.15;;;1.05;;
52138;SDS011;38131;53.256;6.460;2022-07-10T12:39:36;7.15;;;1.35;;
52138;SDS011;38131;53.256;6.460;2022-07-10T12:42:08;6.95;;;1.20;;
52138;SDS011;38131;53.256;6.460;2022-07-10T12:44:36;6.35;;;1.23;;
52138;SDS011;38131;53.256;6.460;2022-07-10T12:47:21;2.50;;;1.33;;
52138;SDS011;38131;53.256;6.460;2022-07-10T12:53:06;4.65;;;1.52;;
52138;SDS011;38131;53.256;6.460;2022-07-10T12:55:41;5.15;;;1.55;;
52138;SDS011;38131;53.256;6.460;2022-07-10T13:00:47;4.07;;;1.45;;
52138;SDS011;38131;53.256;6.460;2022-07-10T13:03:17;5.20;;;1.20;;
52138;SDS011;38131;53.256;6.460;2022-07-10T13:05:55;6.90;;;1.80;;
52138;SDS011;38131;53.256;6.460;2022-07-10T13:11:12;6.68;;;1.40;;
52138;SDS011;38131;53.256;6.460;2022-07-10T13:13:39;7.90;;;2.38;;
52138;SDS011;38131;53.256;6.460;2022-07-10T13:16:08;7.38;;;1.70;;
52138;SDS011;38131;53.256;6.460;2022-07-10T13:18:34;6.10;;;1.70;;
52138;SDS011;38131;53.256;6.460;2022-07-10T13:21:00;7.07;;;1.63;;
52138;SDS011;38131;53.256;6.460;2022-07-10T13:23:29;7.47;;;2.20;;
52138;SDS011;38131;53.256;6.460;2022-07-10T13:25:56;5.32;;;1.90;;
52138;SDS011;38131;53.256;6.460;2022-07-10T13:28:24;6.43;;;1.97;;
52138;SDS011;38131;53.256;6.460;2022-07-10T13:30:50;8.65;;;2.10;;
52138;SDS011;38131;53.256;6.460;2022-07-10T13:33:16;9.20;;;2.30;;
52138;SDS011;38131;53.256;6.460;2022-07-10T13:35:42;10.70;;;1.63;;
52138;SDS011;38131;53.256;6.460;2022-07-10T13:38:08;9.32;;;2.20;;
52138;SDS011;38131;53.256;6.460;2022-07-10T13:40:35;4.93;;;1.40;;
52138;SDS011;38131;53.256;6.460;2022-07-10T13:43:02;8.45;;;2.22;;
52138;SDS011;38131;53.256;6.460;2022-07-10T13:45:28;8.25;;;1.67;;
52138;SDS011;38131;53.256;6.460;2022-07-10T13:47:59;7.03;;;1.85;;
52138;SDS011;38131;53.256;6.460;2022-07-10T13:50:24;6.13;;;1.85;;
52138;SDS011;38131;53.256;6.460;2022-07-10T13:52:51;7.00;;;1.67;;
52138;SDS011;38131;53.256;6.460;2022-07-10T13:55:18;16.15;;;1.95;;
52138;SDS011;38131;53.256;6.460;2022-07-10T13:57:44;3.45;;;1.27;;
52138;SDS011;38131;53.256;6.460;2022-07-10T14:00:09;5.32;;;1.23;;
52138;SDS011;38131;53.256;6.460;2022-07-10T14:02:36;7.60;;;1.35;;
52138;SDS011;38131;53.256;6.460;2022-07-10T14:05:02;6.22;;;1.25;;
52138;SDS011;38131;53.256;6.460;2022-07-10T14:07:28;7.80;;;1.30;;
52138;SDS011;38131;53.256;6.460;2022-07-10T14:10:02;3.33;;;1.10;;
52138;SDS011;38131;53.256;6.460;2022-07-10T14:12:28;7.38;;;1.40;;
52138;SDS011;38131;53.256;6.460;2022-07-10T14:14:54;2.80;;;0.80;;
52138;SDS011;38131;53.256;6.460;2022-07-10T14:17:20;4.53;;;1.00;;
52138;SDS011;38131;53.256;6.460;2022-07-10T14:19:46;3.05;;;1.00;;
52138;SDS011;38131;53.256;6.460;2022-07-10T14:22:12;7.90;;;1.10;;
52138;SDS011;38131;53.256;6.460;2022-07-10T14:24:38;6.85;;;1.08;;
52138;SDS011;38131;53.256;6.460;2022-07-10T14:29:57;6.07;;;1.20;;
52138;SDS011;38131;53.256;6.460;2022-07-10T14:32:23;4.60;;;0.75;;
52138;SDS011;38131;53.256;6.460;2022-07-10T14:34:49;4.07;;;1.45;;
52138;SDS011;38131;53.256;6.460;2022-07-10T14:37:15;8.35;;;0.98;;
52138;SDS011;38131;53.256;6.460;2022-07-10T14:39:42;1.63;;;0.55;;
52138;SDS011;38131;53.256;6.460;2022-07-10T14:42:08;2.42;;;0.50;;
52138;SDS011;38131;53.256;6.460;2022-07-10T14:44:38;5.30;;;1.10;;
52138;SDS011;38131;53.256;6.460;2022-07-10T14:47:03;10.38;;;3.05;;
52138;SDS011;38131;53.256;6.460;2022-07-10T14:49:30;7.35;;;3.40;;
52138;SDS011;38131;53.256;6.460;2022-07-10T14:51:56;5.10;;;2.00;;
52138;SDS011;38131;53.256;6.460;2022-07-10T14:54:22;2.42;;;1.27;;
52138;SDS011;38131;53.256;6.460;2022-07-10T14:56:48;3.33;;;1.08;;
52138;SDS011;38131;53.256;6.460;2022-07-10T14:59:15;7.15;;;1.70;;
52138;SDS011;38131;53.256;6.460;2022-07-10T15:01:41;2.67;;;0.90;;
52138;SDS011;38131;53.256;6.460;2022-07-10T15:04:08;6.07;;;1.50;;
52138;SDS011;38131;53.256;6.460;2022-07-10T15:06:33;4.93;;;1.55;;
52138;SDS011;38131;53.256;6.460;2022-07-10T15:08:59;7.13;;;1.35;;
52138;SDS011;38131;53.256;6.460;2022-07-10T15:11:25;2.30;;;0.75;;
52138;SDS011;38131;53.256;6.460;2022-07-10T15:13:51;4.53;;;2.40;;
52138;SDS011;38131;53.256;6.460;2022-07-10T15:16:34;3.75;;;1.20;;
52138;SDS011;38131;53.256;6.460;2022-07-10T15:19:00;5.55;;;1.42;;
52138;SDS011;38131;53.256;6.460;2022-07-10T15:21:26;6.93;;;1.33;;
52138;SDS011;38131;53.256;6.460;2022-07-10T15:23:54;1.95;;;1.10;;
52138;SDS011;38131;53.256;6.460;2022-07-10T15:28:48;4.05;;;1.20;;
52138;SDS011;38131;53.256;6.460;2022-07-10T15:31:14;5.47;;;1.17;;
52138;SDS011;38131;53.256;6.460;2022-07-10T15:33:40;2.97;;;1.13;;
52138;SDS011;38131;53.256;6.460;2022-07-10T15:36:10;4.20;;;2.03;;
52138;SDS011;38131;53.256;6.460;2022-07-10T15:38:37;10.70;;;2.00;;
52138;SDS011;38131;53.256;6.460;2022-07-10T15:41:04;9.35;;;1.45;;
52138;SDS011;38131;53.256;6.460;2022-07-10T15:43:30;7.22;;;2.10;;
52138;SDS011;38131;53.256;6.460;2022-07-10T15:48:46;4.60;;;2.03;;
52138;SDS011;38131;53.256;6.460;2022-07-10T15:51:12;11.18;;;2.85;;
52138;SDS011;38131;53.256;6.460;2022-07-10T15:56:43;8.48;;;3.58;;
52138;SDS011;38131;53.256;6.460;2022-07-10T15:59:23;3.53;;;2.83;;
52138;SDS011;38131;53.256;6.460;2022-07-10T16:04:21;6.90;;;4.35;;
52138;SDS011;38131;53.256;6.460;2022-07-10T16:09:32;12.02;;;4.38;;
52138;SDS011;38131;53.256;6.460;2022-07-10T16:11:59;8.00;;;2.03;;
52138;SDS011;38131;53.256;6.460;2022-07-10T16:14:25;5.10;;;2.00;;
52138;SDS011;38131;53.256;6.460;2022-07-10T16:16:51;6.43;;;3.10;;
52138;SDS011;38131;53.256;6.460;2022-07-10T16:19:17;6.53;;;2.60;;
52138;SDS011;38131;53.256;6.460;2022-07-10T16:21:43;9.15;;;4.40;;